createdAt,value
2022-09-04T00:02:37.419Z,20.86
2022-09-04T00:05:37.952Z,20.83
2022-09-04T00:08:30.034Z,20.81
2022-09-04T00:11:34.287Z,20.79
2022-09-04T00:14:10.670Z,20.78
2022-09-04T00:17:06.077Z,20.75
2022-09-04T00:19:49.898Z,20.75
2022-09-04T00:22:53.779Z,20.75
2022-09-04T00:25:38.597Z,20.73
2022-09-04T00:28:19.600Z,20.77
2022-09-04T00:31:04.363Z,20.75
2022-09-04T00:33:45.937Z,20.75
2022-09-04T00:36:17.218Z,20.76
2022-09-04T00:39:15.108Z,20.74
2022-09-04T00:42:21.868Z,20.73
2022-09-04T00:45:46.420Z,20.71
2022-09-04T00:48:39.734Z,20.69
2022-09-04T00:51:17.116Z,20.72
2022-09-04T00:53:55.880Z,20.72
2022-09-04T00:56:35.176Z,20.76
2022-09-04T00:59:43.995Z,20.72
2022-09-04T01:02:59.890Z,20.70
2022-09-04T01:05:45.478Z,20.68
2022-09-04T01:08:56.475Z,20.68
2022-09-04T01:12:10.869Z,20.66
2022-09-04T01:15:37.659Z,20.64
2022-09-04T01:18:25.831Z,20.62
2022-09-04T01:21:34.650Z,20.63
2022-09-04T01:24:28.421Z,20.63
2022-09-04T01:27:29.353Z,20.62
2022-09-04T01:30:05.933Z,20.64
2022-09-04T01:33:01.947Z,20.65
2022-09-04T01:35:45.040Z,20.68
2022-09-04T01:38:49.036Z,20.69
2022-09-04T01:41:56.910Z,20.66
2022-09-04T01:44:23.767Z,20.66
2022-09-04T01:47:21.386Z,20.65
2022-09-04T01:50:04.133Z,20.63
2022-09-04T01:52:40.566Z,20.59
2022-09-04T01:55:24.168Z,20.58
2022-09-04T01:58:27.560Z,20.53
2022-09-04T02:01:22.083Z,20.49
2022-09-04T02:04:08.097Z,20.48
2022-09-04T02:06:59.490Z,20.46
2022-09-04T02:09:47.306Z,20.45
2022-09-04T02:12:42.574Z,20.42
2022-09-04T02:15:15.840Z,20.44
2022-09-04T02:18:19.834Z,20.44
2022-09-04T02:21:27.445Z,20.41
2022-09-04T02:24:34.922Z,20.41
2022-09-04T02:27:11.089Z,20.40
2022-09-04T02:30:01.364Z,20.43
2022-09-04T02:33:15.137Z,20.43
2022-09-04T02:36:08.052Z,20.42
2022-09-04T02:39:28.111Z,20.44
2022-09-04T02:42:32.163Z,20.44
2022-09-04T02:45:46.545Z,20.44
2022-09-04T02:48:52.187Z,20.45
2022-09-04T02:51:54.467Z,20.43
2022-09-04T02:54:56.241Z,20.41
2022-09-04T02:57:55.097Z,20.41
2022-09-04T03:00:46.419Z,20.38
2022-09-04T03:03:29.970Z,20.35
2022-09-04T03:06:07.081Z,20.33
2022-09-04T03:08:57.047Z,20.28
2022-09-04T03:11:53.740Z,20.23
2022-09-04T03:14:34.229Z,20.19
2022-09-04T03:17:28.150Z,20.15
2022-09-04T03:20:18.406Z,20.11
2022-09-04T03:23:15.592Z,20.06
2022-09-04T03:26:02.591Z,20.02
2022-09-04T03:29:10.010Z,19.96
2022-09-04T03:31:41.060Z,19.92
2022-09-04T03:34:36.851Z,19.90
2022-09-04T03:37:50.054Z,19.89
2022-09-04T03:40:45.958Z,19.87
2022-09-04T03:43:52.282Z,19.86
2022-09-04T03:47:03.799Z,19.85
2022-09-04T03:49:55.039Z,19.86
2022-09-04T03:53:31.717Z,19.87
2022-09-04T03:56:42.019Z,19.86
2022-09-04T03:59:13.595Z,19.89
2022-09-04T04:02:30.314Z,19.92
2022-09-04T04:05:22.278Z,19.93
2022-09-04T04:08:14.945Z,19.95
2022-09-04T04:10:53.375Z,19.99
2022-09-04T04:13:37.220Z,20.02
2022-09-04T04:16:31.317Z,20.04
2022-09-04T04:19:23.461Z,20.05
2022-09-04T04:22:07.871Z,20.08
2022-09-04T04:25:02.542Z,20.10
2022-09-04T04:27:59.110Z,20.13
2022-09-04T04:30:43.826Z,20.12
2022-09-04T04:33:53.817Z,20.16
2022-09-04T04:36:51.174Z,20.15
2022-09-04T04:39:49.830Z,20.17
2022-09-04T04:42:55.626Z,20.16
2022-09-04T04:46:13.129Z,20.19
2022-09-04T04:49:07.671Z,20.19
2022-09-04T04:52:08.671Z,20.23
2022-09-04T04:55:10.683Z,20.27
2022-09-04T04:57:56.690Z,20.28
2022-09-04T05:00:39.174Z,20.33
2022-09-04T05:04:02.500Z,20.39
2022-09-04T05:06:43.324Z,20.41
2022-09-04T05:09:31.671Z,20.45
2022-09-04T05:12:23.675Z,20.50
2022-09-04T05:15:19.243Z,20.55
2022-09-04T05:18:04.822Z,20.61
2022-09-04T05:21:05.062Z,20.68
2022-09-04T05:24:03.829Z,20.75
2022-09-04T05:26:47.334Z,20.82
2022-09-04T05:29:35.275Z,20.93
2022-09-04T05:32:37.129Z,21.06
2022-09-04T05:35:17.966Z,21.15
2022-09-04T05:38:09.575Z,21.30
2022-09-04T05:41:18.429Z,21.47
2022-09-04T05:44:32.483Z,21.63
2022-09-04T05:47:18.450Z,21.79
2022-09-04T05:50:21.373Z,22.01
2022-09-04T05:53:34.678Z,22.23
2022-09-04T05:56:41.980Z,22.46
2022-09-04T05:59:59.437Z,22.71
2022-09-04T06:03:07.046Z,22.97
2022-09-04T06:06:01.550Z,23.21
2022-09-04T06:08:49.447Z,23.47
2022-09-04T06:11:43.640Z,23.71
2022-09-04T06:14:59.113Z,23.97
2022-09-04T06:18:11.803Z,24.22
2022-09-04T06:21:32.883Z,24.45
2022-09-04T06:24:18.589Z,24.66
2022-09-04T06:27:07.255Z,24.84
2022-09-04T06:30:09.083Z,25.00
2022-09-04T06:33:06.175Z,25.16
2022-09-04T06:36:34.755Z,25.40
2022-09-04T06:39:19.339Z,25.65
2022-09-04T06:42:25.498Z,25.96
2022-09-04T06:47:56.958Z,26.78
2022-09-04T06:50:53.890Z,27.41
2022-09-04T06:53:42.477Z,28.14
2022-09-04T06:56:51.202Z,29.00
2022-09-04T06:59:35.157Z,29.77
2022-09-04T07:02:25.979Z,30.66
2022-09-04T07:05:10.025Z,31.49
2022-09-04T07:07:57.665Z,32.34
2022-09-04T07:10:34.841Z,33.22
2022-09-04T07:13:38.860Z,34.13
2022-09-04T07:16:29.052Z,34.91
2022-09-04T07:19:15.200Z,35.75
2022-09-04T07:22:17.909Z,36.49
2022-09-04T07:25:18.763Z,37.29
2022-09-04T07:28:37.541Z,38.07
2022-09-04T07:31:26.820Z,38.83
2022-09-04T07:34:14.272Z,39.49
2022-09-04T07:36:57.970Z,40.04
2022-09-04T07:39:45.155Z,40.58
2022-09-04T07:42:20.760Z,41.09
2022-09-04T07:45:22.452Z,41.55
2022-09-04T07:48:23.715Z,42.14
2022-09-04T07:51:05.041Z,42.61
2022-09-04T07:54:22.741Z,43.01
2022-09-04T07:57:13.880Z,43.51
2022-09-04T07:59:56.397Z,43.96
2022-09-04T08:02:56.516Z,44.45
2022-09-04T08:05:52.378Z,44.92
2022-09-04T08:08:59.417Z,45.36
2022-09-04T08:11:38.014Z,45.79
2022-09-04T08:14:37.658Z,46.17
2022-09-04T08:17:41.436Z,46.55
2022-09-04T08:20:12.737Z,46.92
2022-09-04T08:23:11.774Z,47.25
2022-09-04T08:25:55.556Z,47.60
2022-09-04T08:28:48.373Z,47.85
2022-09-04T08:31:59.129Z,47.96
2022-09-04T08:35:07.410Z,47.61
2022-09-04T08:37:49.241Z,47.09
2022-09-04T08:41:06.937Z,46.67
2022-09-04T08:44:07.645Z,46.66
2022-09-04T08:47:20.232Z,46.66
2022-09-04T08:50:18.362Z,46.57
2022-09-04T08:53:03.706Z,46.27
2022-09-04T08:56:08.773Z,46.05
2022-09-04T08:59:24.708Z,46.22
2022-09-04T09:02:18.533Z,46.55
2022-09-04T09:05:40.534Z,46.87
2022-09-04T09:08:43.505Z,47.21
2022-09-04T09:11:59.740Z,47.61
2022-09-04T09:15:10.153Z,47.93
2022-09-04T09:17:59.952Z,48.25
2022-09-04T09:20:31.034Z,48.52
2022-09-04T09:23:28.578Z,48.84
2022-09-04T09:26:10.439Z,49.15
2022-09-04T09:28:56.842Z,49.42
2022-09-04T09:32:10.293Z,49.57
2022-09-04T09:35:08.868Z,49.62
2022-09-04T09:38:04.121Z,49.72
2022-09-04T09:41:08.742Z,49.87
2022-09-04T09:44:03.234Z,49.87
2022-09-04T09:47:03.454Z,49.93
2022-09-04T09:50:00.209Z,49.94
2022-09-04T09:52:47.507Z,50.00
2022-09-04T09:55:58.576Z,50.12
2022-09-04T09:59:22.377Z,50.29
2022-09-04T10:02:35.099Z,50.27
2022-09-04T10:05:57.159Z,50.02
2022-09-04T10:09:01.505Z,49.27
2022-09-04T10:12:33.172Z,48.01
2022-09-04T10:15:35.080Z,46.62
2022-09-04T10:18:23.081Z,45.76
2022-09-04T10:21:20.647Z,44.77
2022-09-04T10:24:21.262Z,44.24
2022-09-04T10:27:14.174Z,44.11
2022-09-04T10:30:10.925Z,44.20
2022-09-04T10:33:09.183Z,44.19
2022-09-04T10:36:12.539Z,44.00
2022-09-04T10:39:16.901Z,43.90
2022-09-04T10:42:08.638Z,43.76
2022-09-04T10:45:09.459Z,43.75
2022-09-04T10:47:55.513Z,43.86
2022-09-04T10:50:59.399Z,44.00
2022-09-04T10:53:54.693Z,44.23
2022-09-04T10:56:47.261Z,44.48
2022-09-04T11:00:06.124Z,44.73
2022-09-04T11:03:22.709Z,44.75
2022-09-04T11:06:30.981Z,44.61
2022-09-04T11:09:28.385Z,44.45
2022-09-04T11:12:23.540Z,44.45
2022-09-04T11:15:08.387Z,44.49
2022-09-04T11:18:03.580Z,44.44
2022-09-04T11:21:25.400Z,44.29
2022-09-04T11:24:03.828Z,44.02
2022-09-04T11:27:15.711Z,43.48
2022-09-04T11:30:02.373Z,42.87
2022-09-04T11:33:16.024Z,42.43
2022-09-04T11:36:05.856Z,42.18
2022-09-04T11:39:17.028Z,41.94
2022-09-04T11:42:27.613Z,41.84
2022-09-04T11:45:22.780Z,41.50
2022-09-04T11:48:23.102Z,41.12
2022-09-04T11:51:06.683Z,40.64
2022-09-04T11:54:40.203Z,40.08
2022-09-04T11:57:28.690Z,39.65
2022-09-04T12:00:13.132Z,39.26
2022-09-04T12:03:20.741Z,38.90
2022-09-04T12:06:26.614Z,38.57
2022-09-04T12:09:17.697Z,38.27
2022-09-04T12:12:11.505Z,38.03
2022-09-04T12:15:07.375Z,37.83
2022-09-04T12:18:09.188Z,37.53
2022-09-04T12:21:00.350Z,37.36
2022-09-04T12:24:07.657Z,37.12
2022-09-04T12:26:56.069Z,36.89
2022-09-04T12:30:05.349Z,36.56
2022-09-04T12:33:31.557Z,36.31
2022-09-04T12:36:36.784Z,36.03
2022-09-04T12:39:52.403Z,35.89
2022-09-04T12:43:32.712Z,35.76
2022-09-04T12:46:39.212Z,35.79
2022-09-04T12:49:32.879Z,35.96
2022-09-04T12:52:35.864Z,36.04
2022-09-04T12:55:22.955Z,36.15
2022-09-04T12:58:17.807Z,36.29
2022-09-04T13:01:15.985Z,36.46
2022-09-04T13:04:11.755Z,36.68
2022-09-04T13:07:15.926Z,36.93
2022-09-04T13:10:16.815Z,37.54
2022-09-04T13:13:07.822Z,37.45
2022-09-04T13:16:15.838Z,37.39
2022-09-04T13:19:22.842Z,37.47
2022-09-04T13:22:36.463Z,37.51
2022-09-04T13:25:19.116Z,37.46
2022-09-04T13:28:02.314Z,37.24
2022-09-04T13:30:31.986Z,37.28
2022-09-04T13:33:39.698Z,36.96
2022-09-04T13:36:49.385Z,36.75
2022-09-04T13:39:29.160Z,36.76
2022-09-04T13:42:15.048Z,36.79
2022-09-04T13:45:05.549Z,37.15
2022-09-04T13:47:58.372Z,37.04
2022-09-04T13:50:57.070Z,37.00
2022-09-04T13:53:35.661Z,36.98
2022-09-04T13:56:19.580Z,37.01
2022-09-04T13:58:51.381Z,37.09
2022-09-04T14:01:25.661Z,37.17
2022-09-04T14:04:11.379Z,37.23
2022-09-04T14:06:38.941Z,37.31
2022-09-04T14:09:06.697Z,37.36
2022-09-04T14:12:07.856Z,37.39
2022-09-04T14:15:07.645Z,37.31
2022-09-04T14:18:22.605Z,37.20
2022-09-04T14:24:10.749Z,37.17
2022-09-04T14:27:20.318Z,36.93
2022-09-04T14:30:23.565Z,36.78
2022-09-04T14:32:06.634Z,37.51
2022-09-04T14:33:36.092Z,36.76
2022-09-04T14:36:25.352Z,36.72
2022-09-04T14:39:22.738Z,36.60
2022-09-04T14:42:27.401Z,36.44
2022-09-04T14:45:48.481Z,36.23
2022-09-04T14:48:17.620Z,36.01
2022-09-04T14:50:57.628Z,35.79
2022-09-04T14:53:34.711Z,35.57
2022-09-04T14:56:07.638Z,35.37
2022-09-04T14:58:41.726Z,35.19
2022-09-04T15:01:20.201Z,35.03
2022-09-04T15:04:06.479Z,34.87
2022-09-04T15:07:07.987Z,34.75
2022-09-04T15:09:43.267Z,34.59
2022-09-04T15:12:28.404Z,34.48
2022-09-04T15:15:22.822Z,34.32
2022-09-04T15:18:02.095Z,34.23
2022-09-04T15:20:34.329Z,34.14
2022-09-04T15:23:38.889Z,33.99
2022-09-04T15:26:19.869Z,33.96
2022-09-04T15:28:54.005Z,33.90
2022-09-04T15:31:32.278Z,33.86
2022-09-04T15:34:08.417Z,33.82
2022-09-04T15:36:37.739Z,33.77
2022-09-04T15:39:29.218Z,33.71
2022-09-04T15:41:56.113Z,33.67
2022-09-04T15:44:29.762Z,33.66
2022-09-04T15:47:20.983Z,33.62
2022-09-04T15:49:58.524Z,33.66
2022-09-04T15:52:43.227Z,33.68
2022-09-04T15:55:26.879Z,33.69
2022-09-04T15:58:04.699Z,33.70
2022-09-04T16:00:38.185Z,33.73
2022-09-04T16:03:29.179Z,33.72
2022-09-04T16:06:08.725Z,33.69
2022-09-04T16:09:00.530Z,33.61
2022-09-04T16:11:42.569Z,33.55
2022-09-04T16:14:26.001Z,33.48
2022-09-04T16:17:00.974Z,33.44
2022-09-04T16:19:48.486Z,33.41
2022-09-04T16:22:32.551Z,33.40
2022-09-04T16:25:11.043Z,33.41
2022-09-04T16:27:51.711Z,33.41
2022-09-04T16:30:33.069Z,33.39
2022-09-04T16:33:01.931Z,33.33
2022-09-04T16:35:37.013Z,33.20
2022-09-04T16:38:23.534Z,33.05
2022-09-04T16:41:13.466Z,32.87
2022-09-04T16:43:40.498Z,32.65
2022-09-04T16:46:29.509Z,32.48
2022-09-04T16:49:07.230Z,32.31
2022-09-04T16:52:22.673Z,32.07
2022-09-04T16:55:15.612Z,31.94
2022-09-04T16:58:18.794Z,31.82
2022-09-04T17:01:15.794Z,31.68
2022-09-04T17:04:12.444Z,31.62
2022-09-04T17:07:02.801Z,31.54
2022-09-04T17:10:01.739Z,31.42
2022-09-04T17:12:40.535Z,31.37
2022-09-04T17:15:22.673Z,31.35
2022-09-04T17:17:51.130Z,31.30
2022-09-04T17:26:25.339Z,31.23
2022-09-04T17:28:46.080Z,31.17
2022-09-04T17:29:08.798Z,31.07
2022-09-04T17:30:29.174Z,30.90
2022-09-04T17:35:23.726Z,30.81
2022-09-04T17:40:38.845Z,30.63
2022-09-04T17:40:40.195Z,30.55
2022-09-04T17:43:22.194Z,30.39
2022-09-04T17:46:29.497Z,30.32
2022-09-04T17:48:56.722Z,30.27
2022-09-04T17:51:28.497Z,30.27
2022-09-04T17:54:02.247Z,30.24
2022-09-04T17:56:42.485Z,30.19
2022-09-04T17:59:20.112Z,30.16
2022-09-04T18:02:20.997Z,30.05
2022-09-04T18:05:42.538Z,29.94
2022-09-04T18:08:32.466Z,29.92
2022-09-04T18:11:20.628Z,29.85
2022-09-04T18:14:01.181Z,29.77
2022-09-04T18:16:42.428Z,29.70
2022-09-04T18:19:47.032Z,29.57
2022-09-04T18:23:08.959Z,29.40
2022-09-04T18:25:55.824Z,29.30
2022-09-04T18:28:34.334Z,29.24
2022-09-04T18:37:06.586Z,29.08
2022-09-04T18:37:20.792Z,28.95
2022-09-04T18:38:26.850Z,28.80
2022-09-04T18:43:31.169Z,28.70
2022-09-04T18:50:24.131Z,28.59
2022-09-04T18:50:42.920Z,28.33
2022-09-04T18:50:48.101Z,28.45
2022-09-04T18:52:20.480Z,28.26
2022-09-04T18:54:57.239Z,28.13
2022-09-04T18:57:48.177Z,28.05
2022-09-04T19:00:34.801Z,27.91
2022-09-04T19:03:26.114Z,27.79
2022-09-04T19:06:00.771Z,27.70
2022-09-04T19:08:37.577Z,27.60
2022-09-04T19:11:21.673Z,27.54
2022-09-04T19:14:09.895Z,27.48
2022-09-04T19:16:46.571Z,27.41
2022-09-04T19:19:31.733Z,27.32
2022-09-04T19:22:32.328Z,27.21
2022-09-04T19:25:07.704Z,27.15
2022-09-04T19:27:46.513Z,27.05
2022-09-04T19:30:24.016Z,26.98
2022-09-04T19:33:03.580Z,26.88
2022-09-04T19:35:46.192Z,26.80
2022-09-04T19:40:57.061Z,26.72
2022-09-04T19:46:08.898Z,26.59
2022-09-04T19:46:12.083Z,26.49
2022-09-04T19:47:46.549Z,26.39
2022-09-04T19:53:37.806Z,26.28
2022-09-04T19:56:38.088Z,26.19
2022-09-04T19:59:30.739Z,26.13
2022-09-04T20:01:59.549Z,26.09
2022-09-04T20:04:46.979Z,26.04
2022-09-04T20:07:41.117Z,25.96
2022-09-04T20:10:22.843Z,25.90
2022-09-04T20:13:28.403Z,25.84
2022-09-04T20:16:20.117Z,25.81
2022-09-04T20:19:07.104Z,25.78
2022-09-04T20:22:04.900Z,25.74
2022-09-04T20:24:59.125Z,25.72
2022-09-04T20:28:15.391Z,25.68
2022-09-04T20:31:01.601Z,25.65
2022-09-04T20:33:35.294Z,25.62
2022-09-04T20:36:10.538Z,25.59
2022-09-04T20:38:44.841Z,25.59
2022-09-04T20:41:35.170Z,25.55
2022-09-04T20:44:24.528Z,25.51
2022-09-04T20:52:49.680Z,25.49
2022-09-04T20:52:52.240Z,25.42
2022-09-04T20:53:57.628Z,25.33
2022-09-04T20:57:43.566Z,25.32
2022-09-04T21:03:08.776Z,25.28
2022-09-04T21:03:11.326Z,25.21
2022-09-04T21:05:59.990Z,25.14
2022-09-04T21:08:52.241Z,25.08
2022-09-04T21:11:40.534Z,25.03
2022-09-04T21:14:18.550Z,25.00
2022-09-04T21:17:35.259Z,24.94
2022-09-04T21:20:17.098Z,24.84
2022-09-04T21:23:18.011Z,24.77
2022-09-04T21:26:22.713Z,24.65
2022-09-04T21:29:23.866Z,24.55
2022-09-04T21:32:43.412Z,24.44
2022-09-04T21:35:24.914Z,24.36
2022-09-04T21:38:07.476Z,24.29
2022-09-04T21:41:08.121Z,24.18
2022-09-04T21:44:13.780Z,24.10
2022-09-04T21:47:08.401Z,24.04
2022-09-04T21:49:56.652Z,24.01
2022-09-04T21:53:11.709Z,23.99
2022-09-04T21:59:38.101Z,23.95
2022-09-04T22:02:35.103Z,23.91
2022-09-04T22:03:11.976Z,23.87
2022-09-04T22:06:14.199Z,23.86
2022-09-04T22:13:28.898Z,23.85
2022-09-04T22:13:41.543Z,23.82
2022-09-04T22:15:02.570Z,23.80
2022-09-04T22:18:00.312Z,23.82
2022-09-04T22:21:15.144Z,23.77
2022-09-04T22:24:10.571Z,23.76
2022-09-04T22:27:04.290Z,23.72
2022-09-04T22:29:59.533Z,23.67
2022-09-04T22:33:14.514Z,23.62
2022-09-04T22:36:29.262Z,23.55
2022-09-04T22:39:11.274Z,23.56
2022-09-04T22:41:52.718Z,23.53
2022-09-04T22:44:56.421Z,23.50
2022-09-04T22:48:17.189Z,23.46
2022-09-04T22:51:10.458Z,23.44
2022-09-04T22:54:36.944Z,23.42
2022-09-04T22:57:27.764Z,23.37
2022-09-04T23:00:12.024Z,23.37
2022-09-04T23:03:19.842Z,23.34
2022-09-04T23:06:18.854Z,23.31
2022-09-04T23:14:00.284Z,23.29
2022-09-04T23:14:00.284Z,23.24
2022-09-04T23:16:46.499Z,23.19
2022-09-04T23:24:50.461Z,23.15
2022-09-04T23:26:46.819Z,23.10
2022-09-04T23:27:01.049Z,23.08
2022-09-04T23:29:59.370Z,23.05
2022-09-04T23:32:32.144Z,23.06
2022-09-04T23:35:15.772Z,23.06
2022-09-04T23:38:26.376Z,23.03
2022-09-04T23:41:14.482Z,23.00
2022-09-04T23:44:25.658Z,22.97
2022-09-04T23:47:49.563Z,22.91
2022-09-04T23:50:48.808Z,22.90
2022-09-04T23:53:52.777Z,22.86
2022-09-04T23:56:46.834Z,22.83
2022-09-04T23:59:39.029Z,22.82
